Time;durP1;ratioP1;P1;durP2;ratioP2;P2;SDS_P1;SDS_P2;PMS_P1;PMS_P2;Temp;Humidity;BMP_temperature;BMP_pressure;BME280_temperature;BME280_humidity;BME280_pressure;Samples;Min_cycle;Max_cycle;Signal;HPM_P1;HPM_P2
2022/05/23 00:01:27;;;;;;;5.20;3.47;;;;;;;;;;5051392;28;20477;-78
2022/05/23 00:03:53;;;;;;;9.68;2.67;;;;;;;;;;5050827;28;20090;-79
2022/05/23 00:06:20;;;;;;;5.07;2.13;;;;;;;;;;5051777;28;20501;-79
2022/05/23 00:08:49;;;;;;;5.00;2.20;;;;;;;;;;5050342;28;20112;-78
2022/05/23 00:11:19;;;;;;;5.50;2.47;;;;;;;;;;5051236;28;20082;-78
2022/05/23 00:13:45;;;;;;;3.63;2.05;;;;;;;;;;5052360;28;20100;-78
2022/05/23 00:16:17;;;;;;;7.53;2.35;;;;;;;;;;5050237;28;20561;-78
2022/05/23 00:18:42;;;;;;;4.82;2.47;;;;;;;;;;5051078;28;20390;-78
2022/05/23 00:21:08;;;;;;;2.83;1.90;;;;;;;;;;5051582;28;20033;-78
2022/05/23 00:23:33;;;;;;;3.35;2.60;;;;;;;;;;5050217;28;20424;-77
2022/05/23 00:25:59;;;;;;;8.75;3.00;;;;;;;;;;5050127;28;20017;-78
2022/05/23 00:28:24;;;;;;;5.65;2.58;;;;;;;;;;5051282;28;20059;-78
2022/05/23 00:30:50;;;;;;;3.80;2.47;;;;;;;;;;5032633;28;20073;-81
2022/05/23 00:35:59;;;;;;;4.03;2.55;;;;;;;;;;5051697;28;20039;-80
2022/05/23 00:38:25;;;;;;;3.20;2.33;;;;;;;;;;5032468;28;20021;-78
2022/05/23 00:43:55;;;;;;;6.03;2.40;;;;;;;;;;5054580;28;20152;-78
2022/05/23 00:46:21;;;;;;;6.82;3.00;;;;;;;;;;5053577;28;20421;-77
2022/05/23 00:48:46;;;;;;;4.40;2.40;;;;;;;;;;5036847;28;20035;-77
2022/05/23 00:51:16;;;;;;;4.80;2.58;;;;;;;;;;5054973;28;20028;-78
2022/05/23 00:53:50;;;;;;;5.05;2.50;;;;;;;;;;5054614;28;20024;-80
2022/05/23 00:56:18;;;;;;;6.35;2.35;;;;;;;;;;5053704;28;20108;-79
2022/05/23 00:58:53;;;;;;;3.90;2.75;;;;;;;;;;5053026;28;20025;-76
2022/05/23 01:01:23;;;;;;;4.63;2.58;;;;;;;;;;5053512;28;20068;-77
2022/05/23 01:03:49;;;;;;;5.18;2.40;;;;;;;;;;5053144;28;20040;-78
2022/05/23 01:06:15;;;;;;;2.45;2.03;;;;;;;;;;5053395;28;20563;-77
2022/05/23 01:08:42;;;;;;;4.80;2.40;;;;;;;;;;5053663;28;20115;-80
2022/05/23 01:11:08;;;;;;;4.13;2.65;;;;;;;;;;5054630;28;20100;-78
2022/05/23 01:13:34;;;;;;;5.80;2.85;;;;;;;;;;5054748;28;20077;-78
2022/05/23 01:16:00;;;;;;;3.97;2.13;;;;;;;;;;5054118;28;20028;-78
2022/05/23 01:18:26;;;;;;;4.82;2.55;;;;;;;;;;5052531;28;20021;-78
2022/05/23 01:20:56;;;;;;;9.68;4.40;;;;;;;;;;5053469;28;20048;-77
2022/05/23 01:23:44;;;;;;;6.60;2.38;;;;;;;;;;5054318;28;20143;-77
2022/05/23 01:26:09;;;;;;;4.40;2.20;;;;;;;;;;5054624;28;20520;-78
2022/05/23 01:28:38;;;;;;;3.00;2.28;;;;;;;;;;5054370;28;20025;-78
2022/05/23 01:31:09;;;;;;;6.65;2.20;;;;;;;;;;5053711;28;20028;-77
2022/05/23 01:33:35;;;;;;;5.32;2.75;;;;;;;;;;5052815;28;20024;-78
2022/05/23 01:36:00;;;;;;;5.10;2.63;;;;;;;;;;5053426;28;20162;-78
2022/05/23 01:38:27;;;;;;;6.75;2.65;;;;;;;;;;5054342;28;20079;-77
2022/05/23 01:40:55;;;;;;;6.15;2.30;;;;;;;;;;5052229;28;20033;-78
2022/05/23 01:43:21;;;;;;;5.97;2.70;;;;;;;;;;5052098;28;20071;-77
2022/05/23 01:45:46;;;;;;;4.25;2.25;;;;;;;;;;5053557;28;20028;-79
2022/05/23 01:48:12;;;;;;;6.00;2.97;;;;;;;;;;5051793;28;20477;-79
2022/05/23 01:50:37;;;;;;;5.63;2.70;;;;;;;;;;5053099;28;20024;-76
2022/05/23 01:53:03;;;;;;;7.53;2.70;;;;;;;;;;5069000;28;20420;-78
2022/05/23 01:55:29;;;;;;;5.45;2.45;;;;;;;;;;5053536;28;20415;-79
2022/05/23 01:57:56;;;;;;;4.78;2.58;;;;;;;;;;5052376;28;20108;-78
2022/05/23 02:03:09;;;;;;;4.78;2.40;;;;;;;;;;5053690;28;20071;-77
2022/05/23 02:05:34;;;;;;;3.95;2.72;;;;;;;;;;5051803;28;20033;-77
2022/05/23 02:08:00;;;;;;;8.60;2.92;;;;;;;;;;5051883;28;20085;-77
2022/05/23 02:10:27;;;;;;;7.40;2.50;;;;;;;;;;5051558;28;20032;-76
2022/05/23 02:12:53;;;;;;;5.18;2.63;;;;;;;;;;5051402;28;20025;-75
2022/05/23 02:15:19;;;;;;;5.70;2.65;;;;;;;;;;5052823;28;20502;-76
2022/05/23 02:17:45;;;;;;;5.30;3.05;;;;;;;;;;5052971;28;20123;-79
2022/05/23 02:20:12;;;;;;;3.13;2.78;;;;;;;;;;5053385;28;20321;-78
2022/05/23 02:22:38;;;;;;;3.00;2.72;;;;;;;;;;5046638;28;20541;-77
2022/05/23 02:25:04;;;;;;;4.15;2.53;;;;;;;;;;5052668;28;20095;-78
2022/05/23 02:27:30;;;;;;;2.97;2.45;;;;;;;;;;5052042;28;20368;-78
2022/05/23 02:29:58;;;;;;;7.65;3.08;;;;;;;;;;5051263;28;20052;-77
2022/05/23 02:32:23;;;;;;;3.15;2.55;;;;;;;;;;5051256;28;20028;-80
2022/05/23 02:34:49;;;;;;;5.57;3.08;;;;;;;;;;5051236;28;20025;-78
2022/05/23 02:37:14;;;;;;;5.75;2.75;;;;;;;;;;5051300;28;20056;-79
2022/05/23 02:39:40;;;;;;;5.13;3.10;;;;;;;;;;5051129;28;20025;-79
2022/05/23 02:42:07;;;;;;;5.88;2.58;;;;;;;;;;5053530;28;20104;-77
2022/05/23 02:44:34;;;;;;;4.15;2.53;;;;;;;;;;5072883;28;20024;-77
2022/05/23 02:47:00;;;;;;;5.75;2.70;;;;;;;;;;5072774;28;20040;-78
2022/05/23 02:49:25;;;;;;;5.55;2.55;;;;;;;;;;5048064;28;20110;-78
2022/05/23 02:51:51;;;;;;;3.85;2.67;;;;;;;;;;5052588;28;20035;-75
2022/05/23 02:54:16;;;;;;;7.15;3.53;;;;;;;;;;5052665;28;20029;-78
2022/05/23 02:56:42;;;;;;;3.53;2.85;;;;;;;;;;5052416;28;20118;-79
2022/05/23 02:59:07;;;;;;;5.72;2.70;;;;;;;;;;5067500;28;20512;-79
2022/05/23 03:03:01;;;;;;;9.40;3.15;;;;;;;;;;5052397;28;20040;-78
2022/05/23 03:04:19;;;;;;;5.47;3.47;;;;;;;;;;5052127;28;20048;-78
2022/05/23 03:06:44;;;;;;;8.48;3.38;;;;;;;;;;5068317;28;20481;-79
2022/05/23 03:09:11;;;;;;;11.15;3.38;;;;;;;;;;5068026;28;20032;-78
2022/05/23 03:11:37;;;;;;;7.40;3.47;;;;;;;;;;5052114;28;20411;-77
2022/05/23 03:14:03;;;;;;;5.72;3.25;;;;;;;;;;5066835;28;20106;-78
2022/05/23 03:16:28;;;;;;;4.60;3.85;;;;;;;;;;5067510;28;20107;-78
2022/05/23 03:18:54;;;;;;;12.13;3.97;;;;;;;;;;5051674;28;20021;-78
2022/05/23 03:26:59;;;;;;;5.55;3.05;;;;;;;;;;5052120;28;20036;-77
2022/05/23 03:29:26;;;;;;;5.43;3.92;;;;;;;;;;5066899;28;20024;-78
2022/05/23 03:31:52;;;;;;;5.85;3.35;;;;;;;;;;5066762;28;20024;-78
2022/05/23 03:34:17;;;;;;;7.28;3.60;;;;;;;;;;5066551;28;20119;-78
2022/05/23 03:36:43;;;;;;;5.40;2.70;;;;;;;;;;5066718;28;20374;-75
2022/05/23 03:39:09;;;;;;;4.50;2.70;;;;;;;;;;5050738;28;20066;-78
2022/05/23 03:41:35;;;;;;;6.72;3.15;;;;;;;;;;5051476;28;20082;-78
2022/05/23 03:44:01;;;;;;;4.93;3.78;;;;;;;;;;5066602;28;20045;-77
2022/05/23 03:46:27;;;;;;;5.90;3.70;;;;;;;;;;5052334;28;20430;-77
2022/05/23 03:48:52;;;;;;;6.97;3.00;;;;;;;;;;5050124;28;20117;-77
2022/05/23 03:51:18;;;;;;;3.25;2.80;;;;;;;;;;5051484;28;20053;-79
2022/05/23 03:53:44;;;;;;;4.22;2.85;;;;;;;;;;5051639;28;20490;-77
2022/05/23 03:56:10;;;;;;;9.00;3.50;;;;;;;;;;5052455;28;20036;-77
2022/05/23 03:58:36;;;;;;;8.75;3.55;;;;;;;;;;5050122;28;20401;-77
2022/05/23 04:01:06;;;;;;;11.13;3.90;;;;;;;;;;5049426;28;20028;-77
2022/05/23 04:03:31;;;;;;;4.90;3.30;;;;;;;;;;5050166;28;20060;-78
2022/05/23 04:05:59;;;;;;;11.15;3.72;;;;;;;;;;5049495;28;20637;-77
2022/05/23 04:08:25;;;;;;;5.60;3.47;;;;;;;;;;5049636;28;20389;-80
2022/05/23 04:10:51;;;;;;;5.47;3.40;;;;;;;;;;5067145;28;20044;-78
2022/05/23 04:13:16;;;;;;;6.97;3.17;;;;;;;;;;5050875;28;20028;-80
2022/05/23 04:15:42;;;;;;;4.68;3.13;;;;;;;;;;5052983;28;20028;-78
2022/05/23 04:18:07;;;;;;;7.07;3.50;;;;;;;;;;5055562;28;20053;-79
2022/05/23 04:20:33;;;;;;;7.13;4.00;;;;;;;;;;5053940;28;20040;-77
2022/05/23 04:22:58;;;;;;;7.75;3.83;;;;;;;;;;5054976;28;20083;-79
2022/05/23 04:25:24;;;;;;;7.25;3.75;;;;;;;;;;5037600;28;20059;-76
2022/05/23 04:27:49;;;;;;;4.00;3.60;;;;;;;;;;5037464;28;20020;-78
2022/05/23 04:30:15;;;;;;;5.18;3.00;;;;;;;;;;5037289;28;20024;-78
2022/05/23 04:35:25;;;;;;;7.15;3.60;;;;;;;;;;5055246;28;20051;-77
2022/05/23 04:37:52;;;;;;;7.85;3.67;;;;;;;;;;5053727;28;20496;-79
2022/05/23 04:40:24;;;;;;;11.25;5.32;;;;;;;;;;5053882;28;20032;-80
2022/05/23 04:42:50;;;;;;;8.02;3.75;;;;;;;;;;5057051;28;20467;-78
2022/05/23 04:45:16;;;;;;;5.38;3.65;;;;;;;;;;5054555;28;20062;-78
2022/05/23 04:50:27;;;;;;;8.40;3.58;;;;;;;;;;5055325;28;20542;-78
2022/05/23 04:52:54;;;;;;;5.75;3.10;;;;;;;;;;5054458;28;20024;-78
2022/05/23 04:55:20;;;;;;;5.65;3.30;;;;;;;;;;5069935;28;20041;-80
2022/05/23 04:57:46;;;;;;;7.80;3.10;;;;;;;;;;5069682;28;20221;-79
2022/05/23 05:00:18;;;;;;;5.07;3.65;;;;;;;;;;5052950;28;20388;-76
2022/05/23 05:02:45;;;;;;;3.38;3.05;;;;;;;;;;5053382;28;20028;-77
2022/05/23 05:05:11;;;;;;;5.38;2.80;;;;;;;;;;5054868;28;20060;-81
2022/05/23 05:07:36;;;;;;;8.35;3.92;;;;;;;;;;5054705;28;20082;-78
2022/05/23 05:10:02;;;;;;;4.70;3.08;;;;;;;;;;5054805;28;20032;-78
2022/05/23 05:12:30;;;;;;;4.20;3.20;;;;;;;;;;5046541;28;20035;-80
2022/05/23 05:14:56;;;;;;;5.53;3.40;;;;;;;;;;5051041;28;20028;-80
2022/05/23 05:17:21;;;;;;;5.95;3.17;;;;;;;;;;5053959;28;20051;-79
2022/05/23 05:19:47;;;;;;;6.70;3.30;;;;;;;;;;5057427;28;20078;-78
2022/05/23 05:22:13;;;;;;;7.03;4.07;;;;;;;;;;5052992;28;20021;-78
2022/05/23 05:24:38;;;;;;;8.50;3.63;;;;;;;;;;5068449;28;20025;-77
2022/05/23 05:27:04;;;;;;;9.50;4.38;;;;;;;;;;5046447;28;20104;-79
2022/05/23 05:29:29;;;;;;;7.68;3.60;;;;;;;;;;5049317;28;20033;-78
2022/05/23 05:32:40;;;;;;;5.53;3.60;;;;;;;;;;5052616;28;20029;-77
2022/05/23 05:35:16;;;;;;;6.75;3.20;;;;;;;;;;5016953;28;20059;-76
2022/05/23 05:37:49;;;;;;;4.10;2.55;;;;;;;;;;5050958;28;20037;-78
2022/05/23 05:40:18;;;;;;;6.78;3.35;;;;;;;;;;5044529;28;20593;-77
2022/05/23 05:42:48;;;;;;;7.68;3.45;;;;;;;;;;5048314;28;20554;-78
2022/05/23 05:45:22;;;;;;;6.35;3.08;;;;;;;;;;5042183;28;20056;-76
2022/05/23 05:47:50;;;;;;;7.28;3.40;;;;;;;;;;5042802;28;20078;-75
2022/05/23 05:50:24;;;;;;;5.95;2.90;;;;;;;;;;5045466;28;20427;-76
2022/05/23 05:52:52;;;;;;;5.22;3.05;;;;;;;;;;5048031;28;20099;-77
2022/05/23 05:55:18;;;;;;;6.75;2.13;;;;;;;;;;5049312;28;20481;-75
2022/05/23 05:57:43;;;;;;;7.25;3.22;;;;;;;;;;5048455;28;20037;-75
2022/05/23 06:00:09;;;;;;;6.15;2.40;;;;;;;;;;5054802;28;20024;-78
2022/05/23 06:02:35;;;;;;;2.67;2.03;;;;;;;;;;5048170;28;20028;-77
2022/05/23 06:05:00;;;;;;;6.75;2.67;;;;;;;;;;5032899;28;20281;-74
2022/05/23 06:13:01;;;;;;;2.92;2.10;;;;;;;;;;5050055;28;20039;-77
2022/05/23 06:15:27;;;;;;;5.82;2.35;;;;;;;;;;5047802;28;20112;-78
2022/05/23 06:17:54;;;;;;;4.07;2.10;;;;;;;;;;5044157;28;20084;-75
2022/05/23 06:20:22;;;;;;;5.22;2.75;;;;;;;;;;5051632;28;20590;-76
2022/05/23 06:22:50;;;;;;;6.57;3.30;;;;;;;;;;5053112;28;20029;-76
2022/05/23 06:25:16;;;;;;;4.03;2.40;;;;;;;;;;5031795;28;20025;-79
2022/05/23 06:27:42;;;;;;;6.72;2.35;;;;;;;;;;5047668;28;20314;-76
2022/05/23 06:30:14;;;;;;;9.65;3.00;;;;;;;;;;5046384;28;20031;-80
2022/05/23 06:32:39;;;;;;;;;;;;;;;;;;5047194;28;20045;-81
2022/05/23 06:35:09;;;;;;;4.05;3.00;;;;;;;;;;5049699;28;20054;-81
2022/05/23 06:37:36;;;;;;;6.25;2.40;;;;;;;;;;5040764;28;20036;-77
2022/05/23 06:40:04;;;;;;;4.22;2.55;;;;;;;;;;5045282;28;20089;-79
2022/05/23 06:42:34;;;;;;;4.65;1.98;;;;;;;;;;5049105;28;20275;-82
2022/05/23 06:45:00;;;;;;;5.40;2.33;;;;;;;;;;5050900;28;20119;-79
2022/05/23 06:47:27;;;;;;;5.30;2.78;;;;;;;;;;5041846;28;20041;-76
2022/05/23 06:49:54;;;;;;;6.13;2.70;;;;;;;;;;5049062;28;20040;-79
2022/05/23 06:52:20;;;;;;;6.68;3.00;;;;;;;;;;5044521;28;20136;-78
2022/05/23 06:54:46;;;;;;;4.32;2.60;;;;;;;;;;5046609;28;20104;-77
2022/05/23 06:57:11;;;;;;;8.13;2.47;;;;;;;;;;5033913;28;20032;-78
2022/05/23 06:59:37;;;;;;;3.33;2.40;;;;;;;;;;5041027;28;20029;-77
2022/05/23 07:02:06;;;;;;;5.18;2.40;;;;;;;;;;5046280;28;20036;-79
2022/05/23 07:12:47;;;;;;;5.72;2.60;;;;;;;;;;5047446;28;20042;-79
2022/05/23 07:15:13;;;;;;;2.78;2.40;;;;;;;;;;5028362;28;20032;-76
2022/05/23 07:17:38;;;;;;;7.20;2.85;;;;;;;;;;5038346;28;20043;-76
2022/05/23 07:20:05;;;;;;;5.50;2.30;;;;;;;;;;5042089;28;20136;-79
2022/05/23 07:22:32;;;;;;;5.35;2.28;;;;;;;;;;5044787;28;20033;-76
2022/05/23 07:25:01;;;;;;;6.10;2.22;;;;;;;;;;5045336;28;20116;-80
2022/05/23 07:27:33;;;;;;;5.10;2.72;;;;;;;;;;5042232;28;20032;-81
2022/05/23 07:30:02;;;;;;;5.80;2.22;;;;;;;;;;5046482;28;20021;-80
2022/05/23 07:32:29;;;;;;;4.03;2.00;;;;;;;;;;5046256;28;20035;-77
2022/05/23 07:34:55;;;;;;;5.32;2.60;;;;;;;;;;5045742;28;20110;-77
2022/05/23 07:37:20;;;;;;;7.10;2.30;;;;;;;;;;5042913;28;20037;-78
2022/05/23 07:39:46;;;;;;;7.82;2.65;;;;;;;;;;5042266;28;20057;-77
2022/05/23 07:42:13;;;;;;;8.32;2.13;;;;;;;;;;5043224;28;20033;-77
2022/05/23 07:44:40;;;;;;;3.28;1.92;;;;;;;;;;5026154;28;20025;-80
2022/05/23 07:47:06;;;;;;;2.92;1.85;;;;;;;;;;5041641;28;20636;-76
2022/05/23 07:49:35;;;;;;;5.85;2.50;;;;;;;;;;5041721;28;20060;-77
2022/05/23 07:52:03;;;;;;;7.15;2.00;;;;;;;;;;5041808;28;20108;-77
2022/05/23 08:02:54;;;;;;;7.82;2.42;;;;;;;;;;5046470;28;20031;-77
2022/05/23 08:05:20;;;;;;;3.88;2.05;;;;;;;;;;5045289;28;20036;-80
2022/05/23 08:07:46;;;;;;;14.05;3.58;;;;;;;;;;5041904;28;20036;-78
2022/05/23 08:10:12;;;;;;;5.18;1.90;;;;;;;;;;5029999;28;20078;-77
2022/05/23 08:12:37;;;;;;;3.88;2.13;;;;;;;;;;5044148;28;20024;-77
2022/05/23 08:15:04;;;;;;;5.32;2.22;;;;;;;;;;5042948;28;20346;-77
2022/05/23 08:17:30;;;;;;;5.57;2.20;;;;;;;;;;5039361;28;20087;-76
2022/05/23 08:19:55;;;;;;;4.30;2.40;;;;;;;;;;5039765;28;20741;-78
2022/05/23 08:22:22;;;;;;;8.57;2.30;;;;;;;;;;5046986;28;20101;-77
2022/05/23 08:24:55;;;;;;;3.13;1.88;;;;;;;;;;5046384;28;20040;-80
2022/05/23 08:27:21;;;;;;;4.70;1.90;;;;;;;;;;5040669;28;20037;-77
2022/05/23 08:29:47;;;;;;;3.33;1.90;;;;;;;;;;5043551;28;20420;-77
2022/05/23 08:32:15;;;;;;;1.55;1.27;;;;;;;;;;5043491;28;20436;-78
2022/05/23 08:34:43;;;;;;;4.45;1.95;;;;;;;;;;5035975;28;20389;-78
2022/05/23 08:37:09;;;;;;;6.55;1.60;;;;;;;;;;5023316;28;20101;-79
2022/05/23 08:39:36;;;;;;;8.45;3.17;;;;;;;;;;5045264;28;20053;-80
2022/05/23 08:42:32;;;;;;;3.70;1.52;;;;;;;;;;5042871;28;20301;-78
2022/05/23 08:45:00;;;;;;;5.80;1.90;;;;;;;;;;5048177;28;20037;-82
2022/05/23 08:47:34;;;;;;;4.40;1.50;;;;;;;;;;5035325;28;20060;-83
2022/05/23 08:50:18;;;;;;;2.13;1.55;;;;;;;;;;5040742;28;20115;-85
2022/05/23 08:52:58;;;;;;;7.35;1.80;;;;;;;;;;5050492;28;20020;-82
2022/05/23 08:55:33;;;;;;;3.67;1.38;;;;;;;;;;5052159;28;20554;-79
2022/05/23 08:58:01;;;;;;;2.38;1.42;;;;;;;;;;5049307;28;20048;-84
2022/05/23 09:00:47;;;;;;;5.82;1.77;;;;;;;;;;5053203;28;20051;-81
2022/05/23 09:03:25;;;;;;;4.85;1.70;;;;;;;;;;5033018;28;20064;-80
2022/05/23 09:06:11;;;;;;;1.90;1.70;;;;;;;;;;5050082;28;20032;-81
2022/05/23 09:08:44;;;;;;;2.95;1.70;;;;;;;;;;5041275;28;20041;-80
2022/05/23 09:11:16;;;;;;;5.38;1.92;;;;;;;;;;5051412;28;20116;-79
2022/05/23 09:13:51;;;;;;;4.88;1.65;;;;;;;;;;5047563;28;20626;-80
2022/05/23 09:16:25;;;;;;;1.75;1.48;;;;;;;;;;5051463;28;20040;-80
2022/05/23 09:19:52;;;;;;;4.22;1.80;;;;;;;;;;5047382;28;20133;-79
2022/05/23 09:22:49;;;;;;;5.90;2.08;;;;;;;;;;4971521;28;20116;-77
2022/05/23 09:25:19;;;;;;;2.58;1.30;;;;;;;;;;5050419;28;20532;-79
2022/05/23 09:28:01;;;;;;;2.85;1.50;;;;;;;;;;5046509;28;20544;-80
2022/05/23 09:30:29;;;;;;;2.85;1.50;;;;;;;;;;5048397;28;20036;-80
2022/05/23 09:33:00;;;;;;;7.18;2.17;;;;;;;;;;5048657;28;20029;-76
2022/05/23 09:35:46;;;;;;;5.65;2.00;;;;;;;;;;5043994;28;20045;-80
2022/05/23 09:38:31;;;;;;;3.95;1.88;;;;;;;;;;5041523;28;20032;-77
2022/05/23 09:40:58;;;;;;;5.05;1.65;;;;;;;;;;5049657;28;20023;-78
2022/05/23 09:49:26;;;;;;;5.88;1.73;;;;;;;;;;5046161;28;20082;-77
2022/05/23 09:51:54;;;;;;;2.90;1.50;;;;;;;;;;5047030;28;20032;-78
2022/05/23 09:54:46;;;;;;;3.00;1.65;;;;;;;;;;5043365;28;20044;-79
2022/05/23 09:57:39;;;;;;;4.82;1.80;;;;;;;;;;5035667;28;20068;-79
2022/05/23 10:00:26;;;;;;;6.78;1.58;;;;;;;;;;5039001;28;20043;-80
2022/05/23 10:03:06;;;;;;;3.25;1.80;;;;;;;;;;5042643;28;20090;-80
2022/05/23 10:05:44;;;;;;;3.20;1.52;;;;;;;;;;5040356;28;20040;-76
2022/05/23 10:08:13;;;;;;;2.50;1.60;;;;;;;;;;5042362;28;20020;-81
2022/05/23 10:10:53;;;;;;;8.02;2.33;;;;;;;;;;5044475;28;20021;-78
2022/05/23 10:13:28;;;;;;;5.97;2.67;;;;;;;;;;5042657;28;20529;-77
2022/05/23 10:16:23;;;;;;;2.17;1.80;;;;;;;;;;5039905;28;20029;-76
2022/05/23 10:18:54;;;;;;;8.43;2.03;;;;;;;;;;5042667;28;20089;-79
2022/05/23 10:21:24;;;;;;;4.00;1.75;;;;;;;;;;5043647;28;20373;-80
2022/05/23 10:24:14;;;;;;;2.87;1.80;;;;;;;;;;5045111;28;20025;-78
2022/05/23 10:26:49;;;;;;;3.67;1.70;;;;;;;;;;5042823;28;20024;-79
2022/05/23 10:29:28;;;;;;;6.78;1.95;;;;;;;;;;5044830;28;20060;-80
2022/05/23 10:32:09;;;;;;;2.60;1.92;;;;;;;;;;5046889;28;20536;-81
2022/05/23 10:34:40;;;;;;;6.93;2.00;;;;;;;;;;5038298;28;20064;-78
2022/05/23 10:37:08;;;;;;;13.32;2.30;;;;;;;;;;5043849;28;20116;-78
2022/05/23 10:42:36;;;;;;;4.07;1.85;;;;;;;;;;5045496;28;20551;-78
2022/05/23 10:45:28;;;;;;;7.13;2.38;;;;;;;;;;5043124;28;20097;-79
2022/05/23 10:48:32;;;;;;;5.80;1.80;;;;;;;;;;5018653;28;20044;-78
2022/05/23 10:51:23;;;;;;;6.50;2.00;;;;;;;;;;5041246;28;20053;-78
2022/05/23 10:54:09;;;;;;;3.40;1.83;;;;;;;;;;5046768;28;20436;-78
2022/05/23 10:56:57;;;;;;;2.97;2.00;;;;;;;;;;5049019;28;20337;-76
2022/05/23 10:59:37;;;;;;;2.60;1.40;;;;;;;;;;5041223;28;20036;-79
2022/05/23 11:02:24;;;;;;;6.20;2.20;;;;;;;;;;5042987;28;20037;-79
2022/05/23 11:05:11;;;;;;;5.80;1.80;;;;;;;;;;5046068;28;20450;-76
2022/05/23 11:07:40;;;;;;;5.28;2.17;;;;;;;;;;5044277;28;20110;-76
2022/05/23 11:10:24;;;;;;;5.15;2.10;;;;;;;;;;5037913;28;20263;-78
2022/05/23 11:12:59;;;;;;;3.40;1.70;;;;;;;;;;5040884;28;20040;-78
2022/05/23 11:15:49;;;;;;;7.90;1.50;;;;;;;;;;5040642;28;20041;-80
2022/05/23 11:18:41;;;;;;;6.00;1.70;;;;;;;;;;5040681;28;20120;-78
2022/05/23 11:21:20;;;;;;;3.67;1.75;;;;;;;;;;5038811;28;20126;-76
2022/05/23 11:23:54;;;;;;;6.55;2.53;;;;;;;;;;5043233;28;21275;-77
2022/05/23 11:26:27;;;;;;;4.75;2.20;;;;;;;;;;5043285;28;20378;-77
2022/05/23 11:34:46;;;;;;;5.20;1.40;;;;;;;;;;5044306;28;20098;-78
2022/05/23 11:39:53;;;;;;;4.53;1.60;;;;;;;;;;5042184;28;20055;-76
2022/05/23 11:42:22;;;;;;;4.10;1.80;;;;;;;;;;5044168;28;20115;-76
2022/05/23 11:44:50;;;;;;;2.28;1.30;;;;;;;;;;5043897;28;20839;-79
2022/05/23 11:47:25;;;;;;;3.92;1.75;;;;;;;;;;5045614;28;20040;-80
2022/05/23 11:50:00;;;;;;;3.70;1.38;;;;;;;;;;5026314;28;20037;-76
2022/05/23 11:52:31;;;;;;;4.95;1.27;;;;;;;;;;5044842;28;21147;-78
2022/05/23 11:54:57;;;;;;;3.45;2.03;;;;;;;;;;5043389;28;20484;-76
2022/05/23 11:57:35;;;;;;;7.22;4.50;;;;;;;;;;5048084;28;20029;-82
2022/05/23 12:00:08;;;;;;;5.80;1.80;;;;;;;;;;5046169;28;20116;-77
2022/05/23 12:02:38;;;;;;;2.38;1.48;;;;;;;;;;5043492;28;20067;-78
2022/05/23 12:05:12;;;;;;;11.57;2.00;;;;;;;;;;5042883;28;20063;-78
2022/05/23 12:07:37;;;;;;;2.65;1.42;;;;;;;;;;5043860;28;20052;-80
2022/05/23 12:10:25;;;;;;;5.53;2.00;;;;;;;;;;5046195;28;20372;-77
2022/05/23 12:12:57;;;;;;;8.32;1.50;;;;;;;;;;5044151;28;20037;-78
2022/05/23 12:15:42;;;;;;;3.13;1.77;;;;;;;;;;5045950;28;20119;-79
2022/05/23 12:18:12;;;;;;;3.65;1.88;;;;;;;;;;5030268;28;20029;-79
2022/05/23 12:20:46;;;;;;;2.92;1.45;;;;;;;;;;5041300;28;20033;-80
2022/05/23 12:23:39;;;;;;;7.35;1.88;;;;;;;;;;5044189;28;20041;-78
2022/05/23 12:26:11;;;;;;;3.05;1.40;;;;;;;;;;5043286;28;20418;-78
2022/05/23 12:28:55;;;;;;;2.33;1.38;;;;;;;;;;5048662;28;20029;-76
2022/05/23 12:31:27;;;;;;;4.78;1.40;;;;;;;;;;5032556;28;20512;-76
2022/05/23 12:34:02;;;;;;;3.33;1.50;;;;;;;;;;5042635;28;20029;-76
2022/05/23 12:36:31;;;;;;;8.52;1.65;;;;;;;;;;5042457;28;20100;-77
2022/05/23 12:39:34;;;;;;;7.03;1.88;;;;;;;;;;5030974;28;20059;-75
2022/05/23 12:42:24;;;;;;;5.85;1.40;;;;;;;;;;5046678;28;20055;-76
2022/05/23 12:45:17;;;;;;;2.42;1.30;;;;;;;;;;5044203;28;20052;-80
2022/05/23 12:48:04;;;;;;;4.75;1.58;;;;;;;;;;5046256;28;20044;-77
2022/05/23 12:50:53;;;;;;;2.05;1.50;;;;;;;;;;5035621;28;20040;-78
2022/05/23 12:53:29;;;;;;;4.75;1.52;;;;;;;;;;5048030;28;20118;-77
2022/05/23 12:56:13;;;;;;;17.13;2.35;;;;;;;;;;5050901;28;20453;-79
2022/05/23 12:58:42;;;;;;;2.85;1.55;;;;;;;;;;5050440;28;20017;-79
2022/05/23 13:01:14;;;;;;;2.35;1.27;;;;;;;;;;5048037;28;20447;-79
2022/05/23 13:03:57;;;;;;;3.38;1.45;;;;;;;;;;5050278;28;20831;-77
2022/05/23 13:06:56;;;;;;;5.53;2.17;;;;;;;;;;5049253;28;20040;-75
2022/05/23 13:09:36;;;;;;;3.85;1.52;;;;;;;;;;5035291;28;20052;-76
2022/05/23 13:12:11;;;;;;;7.25;2.05;;;;;;;;;;5042450;28;20021;-78
2022/05/23 13:14:57;;;;;;;6.38;1.33;;;;;;;;;;5047906;28;20029;-77
2022/05/23 13:17:34;;;;;;;4.90;1.83;;;;;;;;;;5050258;28;20147;-78
2022/05/23 13:22:44;;;;;;;4.80;1.77;;;;;;;;;;5046262;28;20070;-80
2022/05/23 13:25:28;;;;;;;;;;;;;;;;;;;;;
2022/05/23 13:28:16;;;;;;;4.05;1.83;;;;;;;;;;5048414;28;20136;-82
2022/05/23 13:30:46;;;;;;;3.08;1.13;;;;;;;;;;5034071;28;20053;-82
2022/05/23 13:33:29;;;;;;;7.03;2.83;;;;;;;;;;5059412;28;20053;-84
2022/05/23 13:35:58;;;;;;;7.63;1.40;;;;;;;;;;5051167;28;20626;-82
2022/05/23 13:38:42;;;;;;;2.42;1.30;;;;;;;;;;5057602;28;20041;-80
2022/05/23 13:44:48;;;;;;;6.93;2.08;;;;;;;;;;5033587;28;20068;-83
2022/05/23 13:47:21;;;;;;;1.92;1.30;;;;;;;;;;5056371;28;20036;-81
2022/05/23 13:50:22;;;;;;;2.35;1.58;;;;;;;;;;5055834;28;20016;-84
2022/05/23 13:52:56;;;;;;;8.05;2.03;;;;;;;;;;5057203;28;20452;-82
2022/05/23 13:56:20;;;;;;;2.33;1.25;;;;;;;;;;5056615;28;20053;-79
2022/05/23 13:58:50;;;;;;;1.60;1.00;;;;;;;;;;4987786;28;20072;-79
2022/05/23 14:01:18;;;;;;;;;;;;;;;;;;5049572;28;20132;-79
2022/05/23 14:03:49;;;;;;;3.08;1.30;;;;;;;;;;5052374;28;19995;-82
2022/05/23 14:06:24;;;;;;;4.00;1.58;;;;;;;;;;5052954;28;20064;-80
2022/05/23 14:09:26;;;;;;;5.70;1.27;;;;;;;;;;5051072;28;20075;-79
2022/05/23 14:11:55;;;;;;;3.35;1.40;;;;;;;;;;5048949;28;20104;-78
2022/05/23 14:14:30;;;;;;;3.22;0.90;;;;;;;;;;5049844;28;20037;-80
2022/05/23 14:17:35;;;;;;;5.05;1.02;;;;;;;;;;5035397;28;20047;-81
2022/05/23 14:20:25;;;;;;;5.28;1.20;;;;;;;;;;5003285;28;20115;-79
2022/05/23 14:23:12;;;;;;;4.75;1.63;;;;;;;;;;5047825;28;20029;-81
2022/05/23 14:26:00;;;;;;;7.03;1.30;;;;;;;;;;5051616;28;20422;-82
2022/05/23 14:28:46;;;;;;;5.28;1.30;;;;;;;;;;5051584;28;20037;-83
2022/05/23 14:31:12;;;;;;;2.95;1.52;;;;;;;;;;5045483;28;20021;-79
2022/05/23 14:33:43;;;;;;;4.65;1.40;;;;;;;;;;5051407;28;20032;-80
2022/05/23 14:36:21;;;;;;;3.70;1.17;;;;;;;;;;5046836;28;20342;-82
2022/05/23 14:39:03;;;;;;;4.05;1.33;;;;;;;;;;5043609;28;20070;-83
2022/05/23 14:41:36;;;;;;;2.70;1.08;;;;;;;;;;5046795;28;20029;-80
2022/05/23 14:44:25;;;;;;;2.75;1.20;;;;;;;;;;5048616;28;20465;-79
2022/05/23 14:47:04;;;;;;;3.20;1.50;;;;;;;;;;5050749;28;20186;-83
2022/05/23 14:50:00;;;;;;;2.55;0.85;;;;;;;;;;5049885;28;20025;-84
2022/05/23 14:55:17;;;;;;;7.93;1.25;;;;;;;;;;5045906;28;20094;-80
2022/05/23 14:55:42;;;;;;;4.07;1.20;;;;;;;;;;5050660;28;20044;-83
2022/05/23 15:01:19;;;;;;;;;;;;;;;;;;5043421;28;20460;-80
2022/05/23 15:03:48;;;;;;;2.17;1.15;;;;;;;;;;5047264;28;20367;-79
2022/05/23 15:06:15;;;;;;;6.82;1.60;;;;;;;;;;5046171;28;20619;-80
2022/05/23 15:08:44;;;;;;;3.22;1.60;;;;;;;;;;5045792;28;20059;-79
2022/05/23 15:11:29;;;;;;;2.85;1.20;;;;;;;;;;5046065;28;20051;-80
2022/05/23 15:13:57;;;;;;;4.10;1.45;;;;;;;;;;5038499;28;20559;-80
2022/05/23 15:16:31;;;;;;;2.42;1.13;;;;;;;;;;5047993;28;20492;-81
2022/05/23 15:18:58;;;;;;;5.10;1.70;;;;;;;;;;5048501;28;20060;-81
2022/05/23 15:21:26;;;;;;;2.72;1.20;;;;;;;;;;5032724;28;20139;-79
2022/05/23 15:23:52;;;;;;;3.33;1.73;;;;;;;;;;5026253;28;20463;-81
2022/05/23 15:26:23;;;;;;;4.88;1.27;;;;;;;;;;5030536;28;20037;-82
2022/05/23 15:28:51;;;;;;;3.55;1.70;;;;;;;;;;5049435;28;20033;-80
2022/05/23 15:31:18;;;;;;;4.72;1.52;;;;;;;;;;5032587;28;20021;-80
2022/05/23 15:33:44;;;;;;;3.83;1.50;;;;;;;;;;5050703;28;20056;-80
2022/05/23 15:36:09;;;;;;;2.25;1.33;;;;;;;;;;5048521;28;20486;-80
2022/05/23 15:38:35;;;;;;;2.85;1.20;;;;;;;;;;5033595;28;20125;-80
2022/05/23 15:41:02;;;;;;;17.85;2.83;;;;;;;;;;5049550;28;20025;-79
2022/05/23 15:43:28;;;;;;;4.68;1.40;;;;;;;;;;5032843;28;20110;-82
2022/05/23 15:45:54;;;;;;;5.55;2.20;;;;;;;;;;5068179;28;20028;-80
2022/05/23 15:48:22;;;;;;;5.13;1.95;;;;;;;;;;5055311;28;20455;-80
2022/05/23 15:50:49;;;;;;;1.88;1.38;;;;;;;;;;5070435;28;20020;-80
2022/05/23 15:53:17;;;;;;;2.60;0.90;;;;;;;;;;5070661;28;20086;-80
2022/05/23 15:55:49;;;;;;;4.57;1.25;;;;;;;;;;5069748;28;20051;-80
2022/05/23 15:58:16;;;;;;;2.80;1.13;;;;;;;;;;5052858;28;20024;-79
2022/05/23 16:00:42;;;;;;;2.45;1.83;;;;;;;;;;5071050;28;20044;-80
2022/05/23 16:03:08;;;;;;;1.58;1.05;;;;;;;;;;5071243;28;20488;-81
2022/05/23 16:05:37;;;;;;;3.97;1.45;;;;;;;;;;5071734;28;20024;-81
2022/05/23 16:08:04;;;;;;;4.25;1.25;;;;;;;;;;5053778;28;20388;-81
2022/05/23 16:10:31;;;;;;;1.48;1.35;;;;;;;;;;5070620;28;20124;-80
2022/05/23 16:13:13;;;;;;;2.58;1.60;;;;;;;;;;5053653;28;20099;-81
2022/05/23 16:15:43;;;;;;;4.25;1.40;;;;;;;;;;5070755;28;20476;-81
2022/05/23 16:18:11;;;;;;;2.03;1.40;;;;;;;;;;5070861;28;20024;-80
2022/05/23 16:20:37;;;;;;;6.55;1.98;;;;;;;;;;5070421;28;20337;-79
2022/05/23 16:23:06;;;;;;;3.42;1.33;;;;;;;;;;5033374;28;20036;-80